createdAt,value
2022-10-12T00:00:38.740Z,99.90
2022-10-12T00:03:06.598Z,99.90
2022-10-12T00:05:34.502Z,99.90
2022-10-12T00:08:03.707Z,99.90
2022-10-12T00:10:31.596Z,99.90
2022-10-12T00:13:00.083Z,99.90
2022-10-12T00:15:28.028Z,99.90
2022-10-12T00:17:55.844Z,99.90
2022-10-12T00:20:23.747Z,99.90
2022-10-12T00:22:51.616Z,99.90
2022-10-12T00:25:20.842Z,99.90
2022-10-12T00:27:48.661Z,99.90
2022-10-12T00:30:16.642Z,99.90
2022-10-12T00:32:44.470Z,99.90
2022-10-12T00:35:12.322Z,99.90
2022-10-12T00:37:40.384Z,99.90
2022-10-12T00:40:09.520Z,99.90
2022-10-12T00:42:38.690Z,99.90
2022-10-12T00:45:07.531Z,99.90
2022-10-12T00:47:37.838Z,99.90
2022-10-12T00:50:11.036Z,99.90
2022-10-12T00:52:44.418Z,99.90
2022-10-12T00:55:16.486Z,99.90
2022-10-12T00:57:47.424Z,99.90
2022-10-12T01:00:16.902Z,99.90
2022-10-12T01:02:48.142Z,99.90
2022-10-12T01:05:16.356Z,99.90
2022-10-12T01:07:44.196Z,99.90
2022-10-12T01:10:12.800Z,99.90
2022-10-12T01:12:43.459Z,99.90
2022-10-12T01:15:14.576Z,99.90
2022-10-12T01:17:53.777Z,99.90
2022-10-12T01:20:44.430Z,99.90
2022-10-12T01:23:37.714Z,99.90
2022-10-12T01:26:31.929Z,99.90
2022-10-12T01:29:12.301Z,99.90
2022-10-12T01:31:47.857Z,99.90
2022-10-12T01:34:23.066Z,99.90
2022-10-12T01:36:59.105Z,99.90
2022-10-12T01:39:33.196Z,99.90
2022-10-12T01:42:04.776Z,99.90
2022-10-12T01:44:32.625Z,99.90
2022-10-12T01:47:02.304Z,99.90
2022-10-12T01:49:33.751Z,99.90
2022-10-12T01:52:26.575Z,99.90
2022-10-12T01:55:24.835Z,99.90
2022-10-12T01:58:04.646Z,99.90
2022-10-12T02:00:37.487Z,99.90
2022-10-12T02:03:15.268Z,99.90
2022-10-12T02:05:49.235Z,99.90
2022-10-12T02:08:23.125Z,99.90
2022-10-12T02:10:58.521Z,99.90
2022-10-12T02:13:30.588Z,99.90
2022-10-12T02:16:01.509Z,99.90
2022-10-12T02:18:31.694Z,99.90
2022-10-12T02:21:01.066Z,99.90
2022-10-12T02:23:29.668Z,99.90
2022-10-12T02:25:59.587Z,99.90
2022-10-12T02:28:30.728Z,99.90
2022-10-12T02:31:04.838Z,99.90
2022-10-12T02:33:38.972Z,99.90
2022-10-12T02:36:11.293Z,99.90
2022-10-12T02:38:43.700Z,99.90
2022-10-12T02:41:17.456Z,99.90
2022-10-12T02:43:48.658Z,99.90
2022-10-12T02:46:18.177Z,99.90
2022-10-12T02:48:49.004Z,99.90
2022-10-12T02:51:18.792Z,99.90
2022-10-12T02:53:47.539Z,99.90
2022-10-12T02:56:16.706Z,99.90
2022-10-12T02:58:46.169Z,99.90
2022-10-12T03:01:14.582Z,99.90
2022-10-12T03:03:42.444Z,99.90
2022-10-12T03:06:11.690Z,99.90
2022-10-12T03:08:39.638Z,99.90
2022-10-12T03:11:10.090Z,99.90
2022-10-12T03:13:37.935Z,99.90
2022-10-12T03:16:07.109Z,99.90
2022-10-12T03:18:35.305Z,99.90
2022-10-12T03:21:03.199Z,99.90
2022-10-12T03:23:32.401Z,99.90
2022-10-12T03:26:00.314Z,99.90
2022-10-12T03:28:28.237Z,99.90
2022-10-12T03:30:56.264Z,99.90
2022-10-12T03:33:24.226Z,99.90
2022-10-12T03:35:52.490Z,99.90
2022-10-12T03:38:20.825Z,99.90
2022-10-12T03:40:50.131Z,99.90
2022-10-12T03:43:18.191Z,99.90
2022-10-12T03:45:46.021Z,99.90
2022-10-12T03:48:13.931Z,99.90
2022-10-12T03:50:41.756Z,99.90
2022-10-12T03:53:09.787Z,99.90
2022-10-12T03:55:37.608Z,99.90
2022-10-12T03:58:06.877Z,99.90
2022-10-12T04:00:34.785Z,99.90
2022-10-12T04:03:03.099Z,99.90
2022-10-12T04:05:31.420Z,99.90
2022-10-12T04:07:59.564Z,99.90
2022-10-12T04:10:27.531Z,99.90
2022-10-12T04:12:55.440Z,99.90
2022-10-12T04:15:24.722Z,99.90
2022-10-12T04:17:52.598Z,99.90
2022-10-12T04:20:20.471Z,99.90
2022-10-12T04:22:48.266Z,99.90
2022-10-12T04:25:16.198Z,99.90
2022-10-12T04:27:44.084Z,99.90
2022-10-12T04:30:13.723Z,99.90
2022-10-12T04:32:42.961Z,99.90
2022-10-12T04:35:10.824Z,99.90
2022-10-12T04:37:39.059Z,99.90
2022-10-12T04:40:08.467Z,99.90
2022-10-12T04:42:36.302Z,99.90
2022-10-12T04:45:04.243Z,99.90
2022-10-12T04:47:32.073Z,99.90
2022-10-12T04:50:01.288Z,99.90
2022-10-12T04:52:29.113Z,99.90
2022-10-12T04:54:56.979Z,99.90
2022-10-12T04:57:25.045Z,99.90
2022-10-12T04:59:52.888Z,99.90
2022-10-12T05:02:20.751Z,99.90
2022-10-12T05:04:48.620Z,99.90
2022-10-12T05:07:17.909Z,99.90
2022-10-12T05:09:45.747Z,99.90
2022-10-12T05:12:13.675Z,99.90
2022-10-12T05:14:41.522Z,99.90
2022-10-12T05:17:09.362Z,99.90
2022-10-12T05:19:37.291Z,99.90
2022-10-12T05:22:05.156Z,99.90
2022-10-12T05:24:34.443Z,99.90
2022-10-12T05:27:02.986Z,99.90
2022-10-12T05:29:30.930Z,99.90
2022-10-12T05:31:58.761Z,99.90
2022-10-12T05:34:26.627Z,99.90
2022-10-12T05:36:54.569Z,99.90
2022-10-12T05:39:22.478Z,99.90
2022-10-12T05:41:54.188Z,99.90
2022-10-12T05:44:22.029Z,99.90
2022-10-12T05:46:49.873Z,99.90
2022-10-12T05:49:17.745Z,99.90
2022-10-12T05:51:45.628Z,99.90
2022-10-12T05:54:13.583Z,99.90
2022-10-12T05:56:41.501Z,99.90
2022-10-12T05:59:11.382Z,99.90
2022-10-12T06:01:39.590Z,99.90
2022-10-12T06:04:07.802Z,99.90
2022-10-12T06:06:38.602Z,99.90
2022-10-12T06:09:06.784Z,99.90
2022-10-12T06:11:36.460Z,99.90
2022-10-12T06:14:05.313Z,99.90
2022-10-12T06:16:34.681Z,99.90
2022-10-12T06:19:02.830Z,99.90
2022-10-12T06:21:34.768Z,99.90
2022-10-12T06:24:03.465Z,99.90
2022-10-12T06:26:31.429Z,99.90
2022-10-12T06:29:00.703Z,99.90
2022-10-12T06:31:28.841Z,99.90
2022-10-12T06:33:58.163Z,99.90
2022-10-12T06:36:26.110Z,99.90
2022-10-12T06:38:54.125Z,99.90
2022-10-12T06:41:21.981Z,99.90
2022-10-12T06:43:49.964Z,99.90
2022-10-12T06:46:17.951Z,99.90
2022-10-12T06:48:45.821Z,99.90
2022-10-12T06:51:15.016Z,99.90
2022-10-12T06:53:42.969Z,99.90
2022-10-12T06:56:12.422Z,99.90
2022-10-12T06:58:40.541Z,99.90
2022-10-12T07:01:10.622Z,99.90
2022-10-12T07:03:38.612Z,99.90
2022-10-12T07:06:08.356Z,99.90
2022-10-12T07:08:37.671Z,99.90
2022-10-12T07:11:07.317Z,99.90
2022-10-12T07:13:36.276Z,99.90
2022-10-12T07:16:05.005Z,99.90
2022-10-12T07:18:33.409Z,99.90
2022-10-12T07:21:02.709Z,99.90
2022-10-12T07:23:31.993Z,99.90
2022-10-12T07:26:01.853Z,99.90
2022-10-12T07:28:29.920Z,99.90
2022-10-12T07:31:03.040Z,99.90
2022-10-12T07:33:36.555Z,99.90
2022-10-12T07:36:19.076Z,99.90
2022-10-12T07:38:49.155Z,99.90
2022-10-12T07:41:18.740Z,99.90
2022-10-12T07:43:46.695Z,99.90
2022-10-12T07:46:14.581Z,99.90
2022-10-12T07:48:48.952Z,99.90
2022-10-12T07:51:18.120Z,99.90
2022-10-12T07:53:46.024Z,99.90
2022-10-12T07:56:15.962Z,99.90
2022-10-12T07:58:49.462Z,99.90
2022-10-12T08:01:17.745Z,99.90
2022-10-12T08:03:45.659Z,99.90
2022-10-12T08:06:15.394Z,99.90
2022-10-12T08:08:44.390Z,99.90
2022-10-12T08:11:13.476Z,99.90
2022-10-12T08:13:41.805Z,99.90
2022-10-12T08:16:12.847Z,99.90
2022-10-12T08:18:40.977Z,99.90
2022-10-12T08:21:10.573Z,99.90
2022-10-12T08:23:38.984Z,99.90
2022-10-12T08:26:07.512Z,99.90
2022-10-12T08:28:35.634Z,99.90
2022-10-12T08:31:07.822Z,99.90
2022-10-12T08:33:37.024Z,99.90
2022-10-12T08:36:06.488Z,99.90
2022-10-12T08:38:34.980Z,99.90
2022-10-12T08:41:20.159Z,99.90
2022-10-12T08:44:00.390Z,99.90
2022-10-12T08:46:29.683Z,99.90
2022-10-12T08:49:02.727Z,99.90
2022-10-12T08:51:33.189Z,99.90
2022-10-12T08:54:06.559Z,99.90
2022-10-12T08:56:35.800Z,99.90
2022-10-12T08:59:04.227Z,99.90
2022-10-12T09:01:37.365Z,99.90
2022-10-12T09:04:33.455Z,99.90
2022-10-12T09:07:08.268Z,99.90
2022-10-12T09:09:47.529Z,99.90
2022-10-12T09:12:30.170Z,99.90
2022-10-12T09:15:03.014Z,99.90
2022-10-12T09:17:38.188Z,99.90
2022-10-12T09:20:16.688Z,99.90
2022-10-12T09:22:48.500Z,99.90
2022-10-12T09:25:18.100Z,99.90
2022-10-12T09:27:47.819Z,99.90
2022-10-12T09:30:17.757Z,99.90
2022-10-12T09:33:03.549Z,99.90
2022-10-12T09:35:34.084Z,99.90
2022-10-12T09:38:03.088Z,99.90
2022-10-12T09:40:33.103Z,99.90
2022-10-12T09:43:03.460Z,99.90
2022-10-12T09:45:32.302Z,99.90
2022-10-12T09:48:24.997Z,99.90
2022-10-12T09:50:57.866Z,99.90
2022-10-12T09:53:31.543Z,99.90
2022-10-12T09:56:03.441Z,99.90
2022-10-12T09:58:34.809Z,99.90
2022-10-12T10:01:26.970Z,99.90
2022-10-12T10:04:16.071Z,99.90
2022-10-12T10:06:47.996Z,99.90
2022-10-12T10:09:33.195Z,99.90
2022-10-12T10:12:14.773Z,99.90
2022-10-12T10:14:45.010Z,99.90
2022-10-12T10:17:18.154Z,99.90
2022-10-12T10:19:53.115Z,99.90
2022-10-12T10:22:23.767Z,99.90
2022-10-12T10:24:56.381Z,99.90
2022-10-12T10:27:37.656Z,99.90
2022-10-12T10:30:40.836Z,99.90
2022-10-12T10:33:18.479Z,99.90
2022-10-12T10:36:05.290Z,99.90
2022-10-12T10:38:55.085Z,99.90
2022-10-12T10:41:26.863Z,99.90
2022-10-12T10:43:55.224Z,99.90
2022-10-12T10:46:25.967Z,99.90
2022-10-12T10:48:58.688Z,99.90
2022-10-12T10:51:42.513Z,99.90
2022-10-12T10:54:28.512Z,99.90
2022-10-12T10:57:01.469Z,99.90
2022-10-12T10:59:46.419Z,99.90
2022-10-12T11:02:26.427Z,99.90
2022-10-12T11:05:01.050Z,99.90
2022-10-12T11:07:34.891Z,99.00
2022-10-12T11:10:09.517Z,98.50
2022-10-12T11:12:43.552Z,98.50
2022-10-12T11:15:19.522Z,99.10
2022-10-12T11:17:51.690Z,98.80
2022-10-12T11:20:35.284Z,98.40
2022-10-12T11:23:10.206Z,97.50
2022-10-12T11:25:48.973Z,96.30
2022-10-12T11:28:17.615Z,95.00
2022-10-12T11:30:51.780Z,94.10
2022-10-12T11:33:24.631Z,92.10
2022-10-12T11:35:54.000Z,90.40
2022-10-12T11:38:28.373Z,87.90
2022-10-12T11:41:31.134Z,86.10
2022-10-12T11:43:57.305Z,84.80
2022-10-12T11:46:32.862Z,82.80
2022-10-12T11:49:06.541Z,83.80
2022-10-12T11:51:37.140Z,82.00
2022-10-12T11:54:12.714Z,81.70
2022-10-12T11:56:46.390Z,79.50
2022-10-12T11:59:18.773Z,79.10
2022-10-12T12:02:01.338Z,80.50
2022-10-12T12:04:47.741Z,80.20
2022-10-12T12:07:42.459Z,80.90
2022-10-12T12:10:45.581Z,82.30
2022-10-12T12:13:22.986Z,82.90
2022-10-12T12:16:24.694Z,82.20
2022-10-12T12:19:31.479Z,80.40
2022-10-12T12:22:30.899Z,79.00
2022-10-12T12:25:05.826Z,80.50
2022-10-12T12:27:37.322Z,79.20
2022-10-12T12:30:24.350Z,76.00
2022-10-12T12:32:55.245Z,73.50
2022-10-12T12:35:26.697Z,72.80
2022-10-12T12:38:18.129Z,73.30
2022-10-12T12:41:14.313Z,74.50
2022-10-12T12:43:57.224Z,73.70
2022-10-12T12:46:46.610Z,74.60
2022-10-12T12:49:29.111Z,75.70
2022-10-12T12:51:59.805Z,76.40
2022-10-12T12:54:28.791Z,77.90
2022-10-12T12:57:36.717Z,78.50
2022-10-12T13:00:14.473Z,79.70
2022-10-12T13:03:27.541Z,80.80
2022-10-12T13:06:33.607Z,81.50
2022-10-12T13:09:29.421Z,83.80
2022-10-12T13:12:08.871Z,84.60
2022-10-12T13:14:51.269Z,86.00
2022-10-12T13:17:43.920Z,86.00
2022-10-12T13:20:19.122Z,86.90
2022-10-12T13:22:48.958Z,88.70
2022-10-12T13:25:26.513Z,89.10
2022-10-12T13:27:55.804Z,90.20
2022-10-12T13:30:31.212Z,90.10
2022-10-12T13:33:04.430Z,90.30
2022-10-12T13:35:39.051Z,90.00
2022-10-12T13:38:18.907Z,90.20
2022-10-12T13:40:54.393Z,89.20
2022-10-12T13:43:29.717Z,84.10
2022-10-12T13:45:57.598Z,81.30
2022-10-12T13:48:53.876Z,78.20
2022-10-12T13:51:26.981Z,77.00
2022-10-12T13:53:55.234Z,73.30
2022-10-12T13:56:26.243Z,70.60
2022-10-12T13:58:58.898Z,67.00
2022-10-12T14:01:26.925Z,63.40
2022-10-12T14:04:04.396Z,61.10
2022-10-12T14:06:36.658Z,57.70
2022-10-12T14:09:09.828Z,55.50
2022-10-12T14:11:39.137Z,54.30
2022-10-12T14:14:07.490Z,53.20
2022-10-12T14:16:35.412Z,50.50
2022-10-12T14:19:19.258Z,51.30
2022-10-12T14:21:49.956Z,51.80
2022-10-12T14:24:20.185Z,53.00
2022-10-12T14:26:55.734Z,53.80
2022-10-12T14:29:41.700Z,53.70
2022-10-12T14:32:41.031Z,54.80
2022-10-12T14:35:26.101Z,55.00
2022-10-12T14:37:56.962Z,55.00
2022-10-12T14:40:35.310Z,54.90
2022-10-12T14:43:05.611Z,55.80
2022-10-12T14:45:34.691Z,55.10
2022-10-12T14:48:14.773Z,55.30
2022-10-12T14:50:44.750Z,55.20
2022-10-12T14:53:15.118Z,55.10
2022-10-12T14:55:46.914Z,56.30
2022-10-12T14:58:19.414Z,56.80
2022-10-12T15:00:47.344Z,57.30
2022-10-12T15:03:17.814Z,57.10
2022-10-12T15:05:45.621Z,58.30
2022-10-12T15:08:14.806Z,60.10
2022-10-12T15:10:42.828Z,61.20
2022-10-12T15:13:13.942Z,62.90
2022-10-12T15:15:45.233Z,64.50
2022-10-12T15:18:13.256Z,65.70
2022-10-12T15:20:45.411Z,68.30
2022-10-12T15:23:17.758Z,70.00
2022-10-12T15:25:51.255Z,71.80
2022-10-12T15:28:19.758Z,72.90
2022-10-12T15:31:15.250Z,75.80
2022-10-12T15:33:35.605Z,77.10
2022-10-12T15:36:03.495Z,79.50
2022-10-12T15:38:32.948Z,81.80
2022-10-12T15:41:00.913Z,83.30
2022-10-12T15:43:28.978Z,84.40
2022-10-12T15:45:57.677Z,85.30
2022-10-12T15:48:27.678Z,86.20
2022-10-12T15:50:55.547Z,87.10
2022-10-12T15:53:26.255Z,88.60
2022-10-12T15:55:56.457Z,89.60
2022-10-12T15:58:24.452Z,90.60
2022-10-12T16:00:52.295Z,91.70
2022-10-12T16:03:25.562Z,91.80
2022-10-12T16:05:54.535Z,92.20
2022-10-12T16:08:22.384Z,92.60
2022-10-12T16:10:50.266Z,93.20
2022-10-12T16:13:19.747Z,94.00
2022-10-12T16:15:47.590Z,94.40
2022-10-12T16:18:15.986Z,94.80
2022-10-12T16:20:47.555Z,95.40
2022-10-12T16:23:22.916Z,95.80
2022-10-12T16:25:51.078Z,96.50
2022-10-12T16:28:20.369Z,97.30
2022-10-12T16:30:48.965Z,97.40
2022-10-12T16:33:17.069Z,97.80
2022-10-12T16:35:45.784Z,98.30
2022-10-12T16:38:14.664Z,98.90
2022-10-12T16:40:43.262Z,99.10
2022-10-12T16:43:11.951Z,99.90
2022-10-12T16:45:41.192Z,99.90
2022-10-12T16:48:09.168Z,99.90
2022-10-12T16:50:40.700Z,99.90
2022-10-12T16:53:09.430Z,99.90
2022-10-12T16:55:39.587Z,99.90
2022-10-12T16:58:07.468Z,99.90
2022-10-12T17:00:35.392Z,99.90
2022-10-12T17:03:04.791Z,99.90
2022-10-12T17:05:32.741Z,99.90
2022-10-12T17:08:00.629Z,99.90
2022-10-12T17:10:28.673Z,99.90
2022-10-12T17:12:56.477Z,99.90
2022-10-12T17:15:24.276Z,99.90
2022-10-12T17:17:53.945Z,99.90
2022-10-12T17:20:23.072Z,99.90
2022-10-12T17:22:50.878Z,99.90
2022-10-12T17:25:18.904Z,99.90
2022-10-12T17:27:47.061Z,99.90
2022-10-12T17:30:14.982Z,99.90
2022-10-12T17:32:42.985Z,99.90
2022-10-12T17:35:11.154Z,99.90
2022-10-12T17:37:40.304Z,99.90
2022-10-12T17:40:10.565Z,99.90
2022-10-12T17:42:38.441Z,99.90
2022-10-12T17:45:07.516Z,99.90
2022-10-12T17:47:35.416Z,99.90
2022-10-12T17:50:03.639Z,99.90
2022-10-12T17:52:31.498Z,99.90
2022-10-12T17:55:01.005Z,99.90
2022-10-12T17:57:29.283Z,99.90
2022-10-12T17:59:57.142Z,99.90
2022-10-12T18:02:24.949Z,99.90
2022-10-12T18:04:53.019Z,99.90
2022-10-12T18:07:20.871Z,99.90
2022-10-12T18:09:48.873Z,99.90
2022-10-12T18:12:18.539Z,99.90
2022-10-12T18:14:46.633Z,99.90
2022-10-12T18:17:14.467Z,99.90
2022-10-12T18:19:42.762Z,99.90
2022-10-12T18:22:10.588Z,99.90
2022-10-12T18:24:39.553Z,99.90
2022-10-12T18:27:08.289Z,99.90
2022-10-12T18:29:37.472Z,99.90
2022-10-12T18:32:06.811Z,99.90
2022-10-12T18:34:36.690Z,99.90
2022-10-12T18:37:04.939Z,99.90
2022-10-12T18:39:33.124Z,99.90
2022-10-12T18:42:00.921Z,99.90
2022-10-12T18:44:28.788Z,99.90
2022-10-12T18:46:58.071Z,99.90
2022-10-12T18:49:25.956Z,99.90
2022-10-12T18:51:53.749Z,99.90
2022-10-12T18:54:22.296Z,99.90
2022-10-12T18:56:50.143Z,99.90
2022-10-12T18:59:19.234Z,99.90
2022-10-12T19:01:47.858Z,99.90
2022-10-12T19:04:17.171Z,99.90
2022-10-12T19:06:45.064Z,99.90
2022-10-12T19:09:13.512Z,99.90
2022-10-12T19:11:41.828Z,99.90
2022-10-12T19:14:14.032Z,99.90
2022-10-12T19:16:42.468Z,99.90
2022-10-12T19:19:18.175Z,99.90
2022-10-12T19:21:50.333Z,99.90
2022-10-12T19:24:18.606Z,99.90
2022-10-12T19:26:46.571Z,99.90
2022-10-12T19:29:14.952Z,99.90
2022-10-12T19:31:46.422Z,99.90
2022-10-12T19:34:17.005Z,99.90
2022-10-12T19:36:45.068Z,99.90
2022-10-12T19:39:16.077Z,99.90
2022-10-12T19:41:44.687Z,99.90
2022-10-12T19:44:13.855Z,99.90
2022-10-12T19:46:42.679Z,99.90
2022-10-12T19:49:13.617Z,99.90
2022-10-12T19:51:41.608Z,99.90
2022-10-12T19:54:12.588Z,99.90
2022-10-12T19:56:42.031Z,99.90
2022-10-12T19:59:09.889Z,99.90
2022-10-12T20:01:39.849Z,99.90
2022-10-12T20:04:11.736Z,99.90
2022-10-12T20:06:39.807Z,99.90
2022-10-12T20:09:09.053Z,99.90
2022-10-12T20:11:38.249Z,99.90
2022-10-12T20:14:08.492Z,99.90
2022-10-12T20:16:37.284Z,99.90
2022-10-12T20:19:07.182Z,99.90
2022-10-12T20:21:36.323Z,99.90
2022-10-12T20:24:04.333Z,99.90
2022-10-12T20:26:32.289Z,99.90
2022-10-12T20:29:01.439Z,99.90
2022-10-12T20:31:30.665Z,99.90
2022-10-12T20:33:58.665Z,99.90
2022-10-12T20:36:28.361Z,99.90
2022-10-12T20:38:57.534Z,99.90
2022-10-12T20:41:26.273Z,99.90
2022-10-12T20:43:56.295Z,99.90
2022-10-12T20:46:24.397Z,99.90
2022-10-12T20:48:58.714Z,99.90
2022-10-12T20:51:29.740Z,99.90
2022-10-12T20:53:59.367Z,99.90
2022-10-12T20:56:27.481Z,99.90
2022-10-12T20:58:55.545Z,99.90
2022-10-12T21:01:23.681Z,99.90
2022-10-12T21:03:52.941Z,99.90
2022-10-12T21:06:23.182Z,99.90
2022-10-12T21:08:52.227Z,99.90
2022-10-12T21:11:20.381Z,99.90
2022-10-12T21:13:48.614Z,99.90
2022-10-12T21:16:17.009Z,99.90
2022-10-12T21:18:44.870Z,99.90
2022-10-12T21:21:16.006Z,99.90
2022-10-12T21:23:45.130Z,99.90
2022-10-12T21:26:17.758Z,99.90
2022-10-12T21:28:46.222Z,99.90
2022-10-12T21:31:15.374Z,99.90
2022-10-12T21:33:43.403Z,99.90
2022-10-12T21:36:15.617Z,99.90
2022-10-12T21:38:44.499Z,99.90
2022-10-12T21:41:13.469Z,99.90
2022-10-12T21:43:42.503Z,99.90
2022-10-12T21:46:13.366Z,99.90
2022-10-12T21:48:41.782Z,99.90
2022-10-12T21:51:10.208Z,99.90
2022-10-12T21:53:40.982Z,99.90
2022-10-12T21:56:10.385Z,99.90
2022-10-12T21:58:40.933Z,99.90
2022-10-12T22:01:10.853Z,99.90
2022-10-12T22:03:38.795Z,99.90
2022-10-12T22:06:07.148Z,99.90
2022-10-12T22:08:35.003Z,99.90
2022-10-12T22:11:09.741Z,99.90
2022-10-12T22:13:38.228Z,99.90
2022-10-12T22:16:08.826Z,99.90
2022-10-12T22:18:36.753Z,99.90
2022-10-12T22:21:05.886Z,99.90
2022-10-12T22:23:35.356Z,99.90
2022-10-12T22:26:04.923Z,99.90
2022-10-12T22:28:34.959Z,99.90
2022-10-12T22:31:06.868Z,99.90
2022-10-12T22:33:35.128Z,99.90
2022-10-12T22:36:03.684Z,99.90
2022-10-12T22:38:31.985Z,99.90
2022-10-12T22:41:02.002Z,99.90
2022-10-12T22:43:31.658Z,99.90
2022-10-12T22:46:01.318Z,99.90
2022-10-12T22:48:29.850Z,99.90
2022-10-12T22:50:57.935Z,99.90
2022-10-12T22:53:26.989Z,99.90
2022-10-12T22:56:00.476Z,99.90
2022-10-12T22:58:28.436Z,99.90
2022-10-12T23:01:03.847Z,99.90
2022-10-12T23:03:32.255Z,99.90
2022-10-12T23:06:00.308Z,99.90
2022-10-12T23:08:29.046Z,99.90
2022-10-12T23:11:04.909Z,99.90
2022-10-12T23:13:33.578Z,99.90
2022-10-12T23:16:07.997Z,99.90
2022-10-12T23:18:36.385Z,99.90
2022-10-12T23:21:06.040Z,99.90
2022-10-12T23:23:34.595Z,99.90
2022-10-12T23:26:04.550Z,99.90
2022-10-12T23:28:32.511Z,99.90
2022-10-12T23:31:00.374Z,99.90
2022-10-12T23:33:29.599Z,99.90
2022-10-12T23:35:58.412Z,99.90
2022-10-12T23:38:27.253Z,99.90
2022-10-12T23:40:55.134Z,99.90
2022-10-12T23:43:23.178Z,99.90
2022-10-12T23:45:51.210Z,99.90
2022-10-12T23:48:19.089Z,99.90
2022-10-12T23:50:48.275Z,99.90
2022-10-12T23:53:16.178Z,99.90
2022-10-12T23:55:43.995Z,99.90
2022-10-12T23:58:12.009Z,99.90
